createdAt,value
2023-04-16T00:00:09.981Z,98309.48
2023-04-16T00:03:23.995Z,98308.24
2023-04-16T00:06:18.022Z,98302.94
2023-04-16T00:09:11.735Z,98307.10
2023-04-16T00:12:06.257Z,98306.83
2023-04-16T00:14:59.814Z,98306.56
2023-04-16T00:17:53.420Z,98303.84
2023-04-16T00:20:47.103Z,98301.17
2023-04-16T00:23:40.836Z,98301.45
2023-04-16T00:26:34.536Z,98305.59
2023-04-16T00:29:28.786Z,98306.80
2023-04-16T00:32:22.432Z,98305.52
2023-04-16T00:35:16.372Z,98302.69
2023-04-16T00:38:10.108Z,98304.31
2023-04-16T00:41:03.654Z,98307.04
2023-04-16T00:43:57.457Z,98312.52
2023-04-16T00:46:51.922Z,98310.17
2023-04-16T00:49:45.922Z,98310.57
2023-04-16T00:52:40.952Z,98313.14
2023-04-16T00:55:34.615Z,98313.67
2023-04-16T00:58:29.501Z,98316.30
2023-04-16T01:01:23.383Z,98313.64
2023-04-16T01:04:17.219Z,98314.17
2023-04-16T01:07:11.219Z,98312.27
2023-04-16T01:10:05.486Z,98315.48
2023-04-16T01:12:59.360Z,98319.86
2023-04-16T01:15:53.142Z,98321.43
2023-04-16T01:18:46.842Z,98323.76
2023-04-16T01:21:40.623Z,98323.34
2023-04-16T01:24:34.992Z,98325.15
2023-04-16T01:27:28.977Z,98326.55
2023-04-16T01:30:22.581Z,98326.69
2023-04-16T01:33:18.020Z,98326.38
2023-04-16T01:36:11.959Z,98326.89
2023-04-16T01:39:05.649Z,98325.64
2023-04-16T01:41:59.279Z,98325.91
2023-04-16T01:44:52.830Z,98328.11
2023-04-16T01:47:46.692Z,98331.66
2023-04-16T01:50:40.365Z,98339.66
2023-04-16T01:53:36.545Z,98341.05
2023-04-16T01:56:30.764Z,98343.02
2023-04-16T01:59:24.449Z,98345.75
2023-04-16T02:02:19.372Z,98344.14
2023-04-16T02:05:13.297Z,98349.81
2023-04-16T02:08:07.365Z,98349.13
2023-04-16T02:11:01.760Z,98353.98
2023-04-16T02:13:55.377Z,98360.66
2023-04-16T02:16:49.190Z,98357.41
2023-04-16T02:19:42.904Z,98361.70
2023-04-16T02:22:36.554Z,98363.48
2023-04-16T02:25:30.294Z,98361.79
2023-04-16T02:28:24.031Z,98364.75
2023-04-16T02:31:19.589Z,98363.20
2023-04-16T02:34:13.464Z,98367.53
2023-04-16T02:37:07.174Z,98364.45
2023-04-16T02:40:01.089Z,98367.27
2023-04-16T02:42:55.169Z,98365.54
2023-04-16T02:45:49.205Z,98365.55
2023-04-16T02:48:43.225Z,98368.36
2023-04-16T02:51:37.200Z,98368.69
2023-04-16T02:54:30.808Z,98370.86
2023-04-16T02:57:24.450Z,98378.00
2023-04-16T03:00:18.870Z,98381.95
2023-04-16T03:03:12.533Z,98382.89
2023-04-16T03:06:06.527Z,98384.04
2023-04-16T03:09:00.383Z,98386.09
2023-04-16T03:11:54.146Z,98387.58
2023-04-16T03:14:47.848Z,98393.23
2023-04-16T03:17:41.501Z,98393.23
2023-04-16T03:20:35.333Z,98398.13
2023-04-16T03:23:29.236Z,98405.86
2023-04-16T03:26:23.022Z,98409.80
2023-04-16T03:29:16.686Z,98414.45
2023-04-16T03:32:12.495Z,98413.92
2023-04-16T03:35:06.974Z,98417.76
2023-04-16T03:38:00.619Z,98426.10
2023-04-16T03:40:54.776Z,98429.66
2023-04-16T03:43:48.380Z,98431.48
2023-04-16T03:46:41.986Z,98431.61
2023-04-16T03:49:35.894Z,98426.59
2023-04-16T03:52:29.921Z,98432.29
2023-04-16T03:55:23.474Z,98437.05
2023-04-16T03:58:17.075Z,98444.73
2023-04-16T04:01:10.958Z,98448.48
2023-04-16T04:04:05.387Z,98450.82
2023-04-16T04:06:59.138Z,98452.70
2023-04-16T04:09:52.730Z,98456.27
2023-04-16T04:12:46.460Z,98456.42
2023-04-16T04:15:40.011Z,98456.58
2023-04-16T04:18:33.739Z,98460.67
2023-04-16T04:21:28.323Z,98461.95
2023-04-16T04:24:21.914Z,98471.46
2023-04-16T04:27:15.591Z,98475.89
2023-04-16T04:30:11.706Z,98478.14
2023-04-16T04:33:05.563Z,98483.30
2023-04-16T04:35:59.553Z,98482.84
2023-04-16T04:38:53.511Z,98483.08
2023-04-16T04:41:47.190Z,98492.01
2023-04-16T04:44:40.883Z,98492.14
2023-04-16T04:47:34.596Z,98491.62
2023-04-16T04:50:28.765Z,98493.75
2023-04-16T04:53:22.428Z,98497.27
2023-04-16T04:56:16.431Z,98497.42
2023-04-16T04:59:10.187Z,98499.58
2023-04-16T05:02:04.882Z,98505.06
2023-04-16T05:04:59.036Z,98508.20
2023-04-16T05:07:52.745Z,98517.00
2023-04-16T05:10:46.355Z,98519.82
2023-04-16T05:13:39.963Z,98523.27
2023-04-16T05:16:33.925Z,98530.15
2023-04-16T05:19:27.752Z,98535.25
2023-04-16T05:22:21.442Z,98538.23
2023-04-16T05:25:19.547Z,98538.56
2023-04-16T05:28:13.282Z,98538.75
2023-04-16T05:31:07.227Z,98539.11
2023-04-16T05:34:01.239Z,98537.67
2023-04-16T05:36:56.120Z,98540.97
2023-04-16T05:39:49.768Z,98538.92
2023-04-16T05:42:43.693Z,98541.52
2023-04-16T05:45:41.318Z,98543.52
2023-04-16T05:48:35.231Z,98547.77
2023-04-16T05:51:28.988Z,98550.86
2023-04-16T05:54:22.961Z,98559.77
2023-04-16T05:57:17.533Z,98564.71
2023-04-16T06:00:13.462Z,98570.70
2023-04-16T06:03:07.832Z,98569.78
2023-04-16T06:06:01.941Z,98574.94
2023-04-16T06:08:55.539Z,98577.70
2023-04-16T06:11:49.361Z,98574.16
2023-04-16T06:14:43.003Z,98572.47
2023-04-16T06:17:36.738Z,98581.00
2023-04-16T06:20:30.776Z,98584.19
2023-04-16T06:23:24.483Z,98586.61
2023-04-16T06:26:18.286Z,98584.88
2023-04-16T06:29:12.406Z,98585.57
2023-04-16T06:32:06.469Z,98595.31
2023-04-16T06:35:00.303Z,98595.70
2023-04-16T06:37:54.360Z,98599.45
2023-04-16T06:40:49.354Z,98596.81
2023-04-16T06:43:43.138Z,98601.79
2023-04-16T06:46:36.973Z,98597.86
2023-04-16T06:49:30.978Z,98600.81
2023-04-16T06:52:24.827Z,98595.74
2023-04-16T06:55:19.075Z,98592.11
2023-04-16T06:58:12.650Z,98592.92
2023-04-16T07:01:06.484Z,98592.95
2023-04-16T07:04:00.841Z,98593.34
2023-04-16T07:06:55.645Z,98590.55
2023-04-16T07:09:49.289Z,98597.66
2023-04-16T07:12:42.961Z,98600.66
2023-04-16T07:15:37.691Z,98600.16
2023-04-16T07:18:31.543Z,98600.00
2023-04-16T07:21:26.169Z,98603.45
2023-04-16T07:24:20.037Z,98609.58
2023-04-16T07:27:13.972Z,98612.27
2023-04-16T07:30:09.844Z,98617.67
2023-04-16T07:33:04.199Z,98615.41
2023-04-16T07:35:58.090Z,98617.86
2023-04-16T07:38:37.107Z,98616.73
2023-04-16T07:41:31.062Z,98616.79
2023-04-16T07:44:24.799Z,98620.77
2023-04-16T07:47:18.738Z,98624.80
2023-04-16T07:50:14.206Z,98626.11
2023-04-16T07:53:08.032Z,98625.84
2023-04-16T07:56:01.697Z,98633.54
2023-04-16T07:58:55.811Z,98634.38
2023-04-16T08:01:49.785Z,98635.88
2023-04-16T08:04:44.743Z,98637.22
2023-04-16T08:07:39.395Z,98639.42
2023-04-16T08:10:33.876Z,98644.69
2023-04-16T08:13:28.405Z,98647.25
2023-04-16T08:16:22.854Z,98646.36
2023-04-16T08:19:17.104Z,98650.14
2023-04-16T08:22:11.315Z,98656.40
2023-04-16T08:25:05.966Z,98656.67
2023-04-16T08:28:00.153Z,98658.27
2023-04-16T08:30:55.075Z,98665.31
2023-04-16T08:33:48.958Z,98662.78
2023-04-16T08:36:42.782Z,98668.04
2023-04-16T08:39:37.765Z,98668.89
2023-04-16T08:42:37.071Z,98671.83
2023-04-16T08:45:32.786Z,98673.48
2023-04-16T08:48:30.138Z,98670.50
2023-04-16T08:51:25.210Z,98671.70
2023-04-16T08:54:27.656Z,98673.41
2023-04-16T08:57:24.052Z,98667.87
2023-04-16T09:00:19.922Z,98669.94
2023-04-16T09:03:14.502Z,98674.62
2023-04-16T09:06:09.887Z,98680.50
2023-04-16T09:09:06.239Z,98679.63
2023-04-16T09:12:00.445Z,98683.30
2023-04-16T09:14:54.800Z,98681.02
2023-04-16T09:17:48.806Z,98677.94
2023-04-16T09:20:43.111Z,98678.31
2023-04-16T09:23:38.467Z,98678.77
2023-04-16T09:26:32.815Z,98679.55
2023-04-16T09:29:40.854Z,98684.47
2023-04-16T09:32:34.756Z,98678.11
2023-04-16T09:35:28.576Z,98681.39
2023-04-16T09:38:22.707Z,98686.16
2023-04-16T09:41:17.730Z,98689.81
2023-04-16T09:44:11.472Z,98698.19
2023-04-16T09:47:08.956Z,98696.58
2023-04-16T09:50:04.513Z,98696.10
2023-04-16T09:53:04.729Z,98700.14
2023-04-16T09:56:00.906Z,98700.05
2023-04-16T09:59:00.930Z,98705.94
2023-04-16T10:02:15.339Z,98706.52
2023-04-16T10:05:16.702Z,98704.51
2023-04-16T10:08:18.755Z,98701.27
2023-04-16T10:11:12.882Z,98696.75
2023-04-16T10:14:06.699Z,98699.42
2023-04-16T10:17:01.150Z,98696.31
2023-04-16T10:19:58.562Z,98694.60
2023-04-16T10:22:54.067Z,98694.48
2023-04-16T10:25:48.909Z,98698.55
2023-04-16T10:28:43.343Z,98694.16
2023-04-16T10:31:37.831Z,98697.55
2023-04-16T10:34:32.619Z,98698.16
2023-04-16T10:37:33.440Z,98701.28
2023-04-16T10:40:30.951Z,98701.86
2023-04-16T10:43:26.403Z,98704.05
2023-04-16T10:46:25.050Z,98703.23
2023-04-16T10:49:21.226Z,98705.20
2023-04-16T10:52:18.207Z,98707.25
2023-04-16T10:55:23.280Z,98709.44
2023-04-16T10:58:36.873Z,98700.44
2023-04-16T11:01:38.349Z,98704.61
2023-04-16T11:04:36.989Z,98705.39
2023-04-16T11:07:39.454Z,98710.20
2023-04-16T11:10:59.447Z,98711.38
2023-04-16T11:13:58.000Z,98716.42
2023-04-16T11:16:51.828Z,98717.44
2023-04-16T11:19:46.926Z,98715.00
2023-04-16T11:22:41.212Z,98715.73
2023-04-16T11:25:35.499Z,98714.90
2023-04-16T11:28:39.461Z,98717.45
2023-04-16T11:31:33.578Z,98716.27
2023-04-16T11:34:27.455Z,98719.75
2023-04-16T11:37:32.285Z,98719.88
2023-04-16T11:40:26.474Z,98717.96
2023-04-16T11:43:20.793Z,98716.70
2023-04-16T11:46:24.596Z,98713.58
2023-04-16T11:49:31.801Z,98710.85
2023-04-16T11:52:33.855Z,98711.64
2023-04-16T11:55:27.877Z,98714.63
2023-04-16T11:58:23.376Z,98714.75
2023-04-16T12:01:40.608Z,98712.28
2023-04-16T12:04:36.200Z,98719.30
2023-04-16T12:07:15.960Z,98714.89
2023-04-16T12:10:14.260Z,98714.52
2023-04-16T12:13:18.707Z,98715.06
2023-04-16T12:16:22.574Z,98714.33
2023-04-16T12:19:16.982Z,98715.40
2023-04-16T12:22:10.822Z,98717.94
2023-04-16T12:25:06.113Z,98717.60
2023-04-16T12:27:59.878Z,98714.27
2023-04-16T12:30:54.861Z,98713.85
2023-04-16T12:34:10.161Z,98709.70
2023-04-16T12:37:10.971Z,98707.66
2023-04-16T12:40:05.908Z,98705.67
2023-04-16T12:42:59.865Z,98708.27
2023-04-16T12:45:54.174Z,98706.92
2023-04-16T12:48:49.752Z,98708.13
2023-04-16T12:51:43.649Z,98711.21
2023-04-16T12:54:39.466Z,98710.62
2023-04-16T12:57:33.434Z,98710.73
2023-04-16T13:00:27.655Z,98709.22
2023-04-16T13:03:21.999Z,98712.41
2023-04-16T13:06:17.689Z,98707.81
2023-04-16T13:09:12.294Z,98708.28
2023-04-16T13:12:07.082Z,98705.61
2023-04-16T13:15:00.896Z,98702.77
2023-04-16T13:17:54.582Z,98705.71
2023-04-16T13:20:48.350Z,98702.96
2023-04-16T13:23:42.431Z,98704.89
2023-04-16T13:26:36.123Z,98704.63
2023-04-16T13:29:30.009Z,98699.13
2023-04-16T13:32:23.973Z,98693.02
2023-04-16T13:35:18.144Z,98694.46
2023-04-16T13:38:12.219Z,98691.13
2023-04-16T13:41:06.133Z,98691.36
2023-04-16T13:43:59.715Z,98690.73
2023-04-16T13:46:37.494Z,98692.77
2023-04-16T13:49:35.484Z,98690.61
2023-04-16T13:52:29.649Z,98691.59
2023-04-16T13:55:23.405Z,98687.41
2023-04-16T13:58:17.467Z,98688.86
2023-04-16T14:01:12.299Z,98688.66
2023-04-16T14:04:08.251Z,98686.77
2023-04-16T14:07:02.084Z,98683.65
2023-04-16T14:09:55.949Z,98688.39
2023-04-16T14:12:49.829Z,98685.91
2023-04-16T14:15:43.584Z,98685.85
2023-04-16T14:18:41.856Z,98687.05
2023-04-16T14:21:35.896Z,98685.03
2023-04-16T14:24:29.595Z,98684.07
2023-04-16T14:27:23.433Z,98685.95
2023-04-16T14:30:17.681Z,98685.77
2023-04-16T14:33:11.355Z,98686.10
2023-04-16T14:36:05.786Z,98683.40
2023-04-16T14:38:59.672Z,98683.42
2023-04-16T14:41:53.492Z,98686.52
2023-04-16T14:44:47.483Z,98683.17
2023-04-16T14:47:46.015Z,98683.67
2023-04-16T14:50:48.198Z,98681.92
2023-04-16T14:53:42.568Z,98685.51
2023-04-16T14:56:36.462Z,98681.92
2023-04-16T14:59:30.447Z,98686.00
2023-04-16T15:02:24.215Z,98683.48
2023-04-16T15:05:17.972Z,98684.30
2023-04-16T15:08:12.221Z,98682.77
2023-04-16T15:11:05.845Z,98681.11
2023-04-16T15:13:59.868Z,98682.59
2023-04-16T15:16:54.149Z,98686.72
2023-04-16T15:19:47.814Z,98683.94
2023-04-16T15:22:41.847Z,98683.17
2023-04-16T15:25:35.745Z,98683.10
2023-04-16T15:28:29.340Z,98687.57
2023-04-16T15:31:23.220Z,98689.26
2023-04-16T15:34:17.010Z,98690.32
2023-04-16T15:37:10.917Z,98694.61
2023-04-16T15:40:05.722Z,98697.39
2023-04-16T15:43:00.471Z,98696.73
2023-04-16T15:45:54.153Z,98697.45
2023-04-16T15:48:47.857Z,98694.27
2023-04-16T15:51:41.890Z,98694.97
2023-04-16T15:54:35.650Z,98697.16
2023-04-16T15:57:29.776Z,98700.33
2023-04-16T16:00:23.975Z,98700.45
2023-04-16T16:03:18.552Z,98698.20
2023-04-16T16:06:13.563Z,98701.66
2023-04-16T16:09:08.138Z,98704.82
2023-04-16T16:12:02.288Z,98705.90
2023-04-16T16:14:56.693Z,98708.83
2023-04-16T16:17:52.764Z,98710.12
2023-04-16T16:20:46.919Z,98716.02
2023-04-16T16:23:40.694Z,98714.73
2023-04-16T16:26:34.647Z,98717.19
2023-04-16T16:29:28.603Z,98715.13
2023-04-16T16:32:22.837Z,98718.90
2023-04-16T16:35:16.897Z,98721.96
2023-04-16T16:38:11.311Z,98721.31
2023-04-16T16:41:05.922Z,98720.40
2023-04-16T16:43:59.776Z,98720.15
2023-04-16T16:46:53.998Z,98720.67
2023-04-16T16:49:47.845Z,98725.78
2023-04-16T16:52:41.823Z,98723.81
2023-04-16T16:55:36.142Z,98729.10
2023-04-16T16:58:31.545Z,98729.91
2023-04-16T17:01:26.090Z,98728.73
2023-04-16T17:04:20.468Z,98730.70
2023-04-16T17:07:14.576Z,98733.98
2023-04-16T17:10:11.174Z,98735.92
2023-04-16T17:13:08.565Z,98735.31
2023-04-16T17:16:02.411Z,98735.47
2023-04-16T17:18:57.513Z,98740.09
2023-04-16T17:21:51.985Z,98742.05
2023-04-16T17:24:45.806Z,98743.85
2023-04-16T17:27:39.653Z,98746.72
2023-04-16T17:30:34.525Z,98751.45
2023-04-16T17:33:28.321Z,98758.87
2023-04-16T17:36:23.042Z,98763.44
2023-04-16T17:39:17.074Z,98764.77
2023-04-16T17:42:10.981Z,98763.14
2023-04-16T17:45:05.351Z,98769.08
2023-04-16T17:47:59.046Z,98768.47
2023-04-16T17:50:53.191Z,98770.58
2023-04-16T17:53:46.847Z,98776.77
2023-04-16T17:56:40.647Z,98778.80
2023-04-16T17:59:34.635Z,98783.71
2023-04-16T18:02:28.548Z,98785.23
2023-04-16T18:05:22.262Z,98789.71
2023-04-16T18:08:15.918Z,98792.80
2023-04-16T18:11:11.946Z,98796.81
2023-04-16T18:14:05.705Z,98797.63
2023-04-16T18:16:59.855Z,98803.38
2023-04-16T18:19:53.543Z,98807.34
2023-04-16T18:22:47.434Z,98807.65
2023-04-16T18:25:41.782Z,98810.98
2023-04-16T18:28:35.979Z,98814.59
2023-04-16T18:31:29.892Z,98821.67
2023-04-16T18:34:25.473Z,98823.56
2023-04-16T18:37:19.245Z,98823.45
2023-04-16T18:40:15.348Z,98824.58
2023-04-16T18:43:09.101Z,98827.34
2023-04-16T18:46:05.452Z,98827.55
2023-04-16T18:48:59.997Z,98832.00
2023-04-16T18:51:55.754Z,98836.52
2023-04-16T18:54:49.698Z,98840.28
2023-04-16T18:57:43.572Z,98841.27
2023-04-16T19:00:37.518Z,98844.21
2023-04-16T19:04:19.298Z,98842.72
2023-04-16T19:06:48.241Z,98845.50
2023-04-16T19:09:41.977Z,98846.73
2023-04-16T19:12:36.425Z,98846.80
2023-04-16T19:15:32.066Z,98847.65
2023-04-16T19:18:27.226Z,98844.83
2023-04-16T19:21:21.067Z,98847.25
2023-04-16T19:24:14.791Z,98847.96
2023-04-16T19:27:08.419Z,98849.08
2023-04-16T19:30:02.921Z,98847.48
2023-04-16T19:32:56.640Z,98847.91
2023-04-16T19:35:50.770Z,98846.89
2023-04-16T19:38:44.424Z,98850.28
2023-04-16T19:41:38.203Z,98849.80
2023-04-16T19:44:32.608Z,98852.48
2023-04-16T19:47:26.281Z,98853.33
2023-04-16T19:50:20.694Z,98851.67
2023-04-16T19:53:16.863Z,98850.35
2023-04-16T19:56:10.889Z,98850.88
2023-04-16T19:59:04.483Z,98851.81
2023-04-16T20:01:58.244Z,98855.79
2023-04-16T20:04:53.379Z,98851.23
2023-04-16T20:07:52.015Z,98853.88
2023-04-16T20:10:46.539Z,98856.20
2023-04-16T20:13:40.237Z,98856.08
2023-04-16T20:16:33.974Z,98853.77
2023-04-16T20:19:31.565Z,98857.35
2023-04-16T20:22:25.198Z,98858.52
2023-04-16T20:25:20.401Z,98857.44
2023-04-16T20:28:21.089Z,98859.99
2023-04-16T20:31:15.550Z,98859.13
2023-04-16T20:34:09.228Z,98862.99
2023-04-16T20:37:02.929Z,98863.59
2023-04-16T20:39:56.559Z,98861.87
2023-04-16T20:42:52.078Z,98863.61
2023-04-16T20:45:46.194Z,98859.88
2023-04-16T20:48:40.339Z,98862.06
2023-04-16T20:51:34.030Z,98866.51
2023-04-16T20:54:32.279Z,98863.88
2023-04-16T20:57:28.041Z,98863.02
2023-04-16T21:00:22.804Z,98864.04
2023-04-16T21:03:16.709Z,98863.92
2023-04-16T21:06:32.855Z,98862.79
2023-04-16T21:09:27.050Z,98863.15
2023-04-16T21:12:21.214Z,98861.88
2023-04-16T21:15:15.880Z,98861.88
2023-04-16T21:18:10.042Z,98858.37
2023-04-16T21:21:03.783Z,98857.05
2023-04-16T21:23:57.778Z,98855.02
2023-04-16T21:26:51.362Z,98858.88
2023-04-16T21:29:45.098Z,98854.95
2023-04-16T21:32:39.221Z,98856.91
2023-04-16T21:35:35.472Z,98848.45
2023-04-16T21:38:29.183Z,98847.81
2023-04-16T21:41:22.886Z,98853.66
2023-04-16T21:44:16.585Z,98851.55
2023-04-16T21:47:10.335Z,98852.59
2023-04-16T21:50:04.040Z,98855.60
2023-04-16T21:52:57.676Z,98856.85
2023-04-16T21:55:51.362Z,98856.52
2023-04-16T21:58:45.094Z,98857.28
2023-04-16T22:01:38.887Z,98859.48
2023-04-16T22:04:38.927Z,98860.11
2023-04-16T22:07:32.758Z,98862.41
2023-04-16T22:10:26.581Z,98857.55
2023-04-16T22:13:20.283Z,98856.09
2023-04-16T22:16:14.150Z,98858.16
2023-04-16T22:19:07.970Z,98859.84
2023-04-16T22:22:01.703Z,98860.04
2023-04-16T22:24:55.701Z,98857.34
2023-04-16T22:27:49.376Z,98859.78
2023-04-16T22:30:43.054Z,98864.78
2023-04-16T22:33:36.713Z,98863.84
2023-04-16T22:36:30.942Z,98864.98
2023-04-16T22:39:24.593Z,98866.64
2023-04-16T22:42:18.384Z,98863.59
2023-04-16T22:45:13.887Z,98866.23
2023-04-16T22:48:07.980Z,98862.52
2023-04-16T22:51:02.060Z,98861.08
2023-04-16T22:53:56.381Z,98860.39
2023-04-16T22:56:50.518Z,98859.36
2023-04-16T22:59:44.433Z,98859.99
2023-04-16T23:02:38.417Z,98860.88
2023-04-16T23:05:32.827Z,98857.86
2023-04-16T23:08:26.714Z,98853.29
2023-04-16T23:11:20.326Z,98850.02
2023-04-16T23:14:16.796Z,98851.63
2023-04-16T23:17:10.701Z,98848.70
2023-04-16T23:20:07.517Z,98848.32
2023-04-16T23:23:01.431Z,98845.45
2023-04-16T23:25:57.847Z,98843.44
2023-04-16T23:28:51.722Z,98845.95
2023-04-16T23:31:45.390Z,98845.12
2023-04-16T23:34:39.090Z,98843.27
2023-04-16T23:37:32.842Z,98841.79
2023-04-16T23:40:26.822Z,98839.55
2023-04-16T23:43:20.412Z,98838.78
2023-04-16T23:46:14.297Z,98832.52
2023-04-16T23:49:08.555Z,98835.54
2023-04-16T23:52:02.338Z,98836.47
2023-04-16T23:54:56.206Z,98842.08
2023-04-16T23:57:49.914Z,98836.70
